sensor_id;sensor_type;location;lat;lon;timestamp;temperature;humidity
43858;DHT22;29507;51.284;5.758;2023-05-07T00:01:42;13.50;99.90
43858;DHT22;29507;51.284;5.758;2023-05-07T00:04:08;13.50;99.90
43858;DHT22;29507;51.284;5.758;2023-05-07T00:06:33;13.40;99.90
43858;DHT22;29507;51.284;5.758;2023-05-07T00:08:59;13.40;99.90
43858;DHT22;29507;51.284;5.758;2023-05-07T00:11:26;13.30;99.90
43858;DHT22;29507;51.284;5.758;2023-05-07T00:13:52;13.30;99.90
43858;DHT22;29507;51.284;5.758;2023-05-07T00:16:17;13.30;99.90
43858;DHT22;29507;51.284;5.758;2023-05-07T00:18:43;13.20;99.90
43858;DHT22;29507;51.284;5.758;2023-05-07T00:21:09;13.10;99.90
43858;DHT22;29507;51.284;5.758;2023-05-07T00:23:34;13.10;99.90
43858;DHT22;29507;51.284;5.758;2023-05-07T00:26:00;13.10;99.90
43858;DHT22;29507;51.284;5.758;2023-05-07T00:28:25;13.10;99.90
43858;DHT22;29507;51.284;5.758;2023-05-07T00:30:51;13.10;99.90
43858;DHT22;29507;51.284;5.758;2023-05-07T00:33:17;13.10;99.90
43858;DHT22;29507;51.284;5.758;2023-05-07T00:35:43;13.00;99.90
43858;DHT22;29507;51.284;5.758;2023-05-07T00:38:08;13.00;99.90
43858;DHT22;29507;51.284;5.758;2023-05-07T00:40:34;13.00;99.90
43858;DHT22;29507;51.284;5.758;2023-05-07T00:43:00;13.00;99.90
43858;DHT22;29507;51.284;5.758;2023-05-07T00:45:28;13.00;99.90
43858;DHT22;29507;51.284;5.758;2023-05-07T00:47:56;13.10;99.90
43858;DHT22;29507;51.284;5.758;2023-05-07T00:50:23;13.10;99.90
43858;DHT22;29507;51.284;5.758;2023-05-07T00:52:49;13.10;99.90
43858;DHT22;29507;51.284;5.758;2023-05-07T00:55:14;13.10;99.90
43858;DHT22;29507;51.284;5.758;2023-05-07T00:57:41;13.10;99.90
43858;DHT22;29507;51.284;5.758;2023-05-07T01:00:08;13.10;99.90
43858;DHT22;29507;51.284;5.758;2023-05-07T01:02:40;13.10;99.90
43858;DHT22;29507;51.284;5.758;2023-05-07T01:05:08;13.10;99.90
43858;DHT22;29507;51.284;5.758;2023-05-07T01:07:34;13.10;99.90
43858;DHT22;29507;51.284;5.758;2023-05-07T01:10:02;13.10;99.90
43858;DHT22;29507;51.284;5.758;2023-05-07T01:12:28;13.20;99.90
43858;DHT22;29507;51.284;5.758;2023-05-07T01:14:55;13.20;99.90
43858;DHT22;29507;51.284;5.758;2023-05-07T01:17:20;13.30;99.90
43858;DHT22;29507;51.284;5.758;2023-05-07T01:19:46;13.30;99.90
43858;DHT22;29507;51.284;5.758;2023-05-07T01:22:15;13.30;99.90
43858;DHT22;29507;51.284;5.758;2023-05-07T01:24:42;13.30;99.90
43858;DHT22;29507;51.284;5.758;2023-05-07T01:27:08;13.30;99.90
43858;DHT22;29507;51.284;5.758;2023-05-07T01:29:33;13.30;99.90
43858;DHT22;29507;51.284;5.758;2023-05-07T01:32:00;13.30;99.90
43858;DHT22;29507;51.284;5.758;2023-05-07T01:34:28;13.20;99.90
43858;DHT22;29507;51.284;5.758;2023-05-07T01:36:56;13.20;99.90
43858;DHT22;29507;51.284;5.758;2023-05-07T01:39:26;13.30;99.90
43858;DHT22;29507;51.284;5.758;2023-05-07T01:41:56;13.30;99.90
43858;DHT22;29507;51.284;5.758;2023-05-07T01:44:22;13.30;99.90
43858;DHT22;29507;51.284;5.758;2023-05-07T01:46:49;13.30;99.90
43858;DHT22;29507;51.284;5.758;2023-05-07T01:49:15;13.30;99.90
43858;DHT22;29507;51.284;5.758;2023-05-07T01:51:41;13.30;99.90
43858;DHT22;29507;51.284;5.758;2023-05-07T01:54:08;13.30;99.90
43858;DHT22;29507;51.284;5.758;2023-05-07T01:56:33;13.30;99.90
43858;DHT22;29507;51.284;5.758;2023-05-07T01:58:59;13.30;99.90
43858;DHT22;29507;51.284;5.758;2023-05-07T02:01:25;13.20;99.90
43858;DHT22;29507;51.284;5.758;2023-05-07T02:03:50;13.20;99.90
43858;DHT22;29507;51.284;5.758;2023-05-07T02:06:16;13.10;99.90
43858;DHT22;29507;51.284;5.758;2023-05-07T02:08:41;13.10;99.90
43858;DHT22;29507;51.284;5.758;2023-05-07T02:11:07;13.10;99.90
43858;DHT22;29507;51.284;5.758;2023-05-07T02:13:33;13.10;99.90
43858;DHT22;29507;51.284;5.758;2023-05-07T02:16:02;13.10;99.90
43858;DHT22;29507;51.284;5.758;2023-05-07T02:18:28;13.10;99.90
43858;DHT22;29507;51.284;5.758;2023-05-07T02:20:54;13.10;99.90
43858;DHT22;29507;51.284;5.758;2023-05-07T02:23:19;13.00;99.90
43858;DHT22;29507;51.284;5.758;2023-05-07T02:25:45;13.00;99.90
43858;DHT22;29507;51.284;5.758;2023-05-07T02:28:11;13.00;99.90
43858;DHT22;29507;51.284;5.758;2023-05-07T02:30:38;12.90;99.90
43858;DHT22;29507;51.284;5.758;2023-05-07T02:33:03;12.90;99.90
43858;DHT22;29507;51.284;5.758;2023-05-07T02:35:29;12.90;99.90
43858;DHT22;29507;51.284;5.758;2023-05-07T02:37:54;12.80;99.90
43858;DHT22;29507;51.284;5.758;2023-05-07T02:40:20;12.80;99.90
43858;DHT22;29507;51.284;5.758;2023-05-07T02:42:46;12.80;99.90
43858;DHT22;29507;51.284;5.758;2023-05-07T02:45:12;12.80;99.90
43858;DHT22;29507;51.284;5.758;2023-05-07T02:47:38;12.90;99.90
43858;DHT22;29507;51.284;5.758;2023-05-07T02:50:04;12.90;99.90
43858;DHT22;29507;51.284;5.758;2023-05-07T02:52:29;12.90;99.90
43858;DHT22;29507;51.284;5.758;2023-05-07T02:54:55;12.90;99.90
43858;DHT22;29507;51.284;5.758;2023-05-07T02:57:21;12.90;99.90
43858;DHT22;29507;51.284;5.758;2023-05-07T02:59:46;12.90;99.90
43858;DHT22;29507;51.284;5.758;2023-05-07T03:02:12;12.90;99.90
43858;DHT22;29507;51.284;5.758;2023-05-07T03:04:39;13.00;99.90
43858;DHT22;29507;51.284;5.758;2023-05-07T03:07:05;12.90;99.90
43858;DHT22;29507;51.284;5.758;2023-05-07T03:09:30;13.00;99.90
43858;DHT22;29507;51.284;5.758;2023-05-07T03:11:56;13.00;99.90
43858;DHT22;29507;51.284;5.758;2023-05-07T03:14:22;12.90;99.90
43858;DHT22;29507;51.284;5.758;2023-05-07T03:16:49;13.00;99.90
43858;DHT22;29507;51.284;5.758;2023-05-07T03:19:15;12.90;99.90
43858;DHT22;29507;51.284;5.758;2023-05-07T03:21:41;13.00;99.90
43858;DHT22;29507;51.284;5.758;2023-05-07T03:24:06;13.00;99.90
43858;DHT22;29507;51.284;5.758;2023-05-07T03:26:32;12.90;99.90
43858;DHT22;29507;51.284;5.758;2023-05-07T03:28:57;12.90;99.90
43858;DHT22;29507;51.284;5.758;2023-05-07T03:31:23;12.90;99.90
43858;DHT22;29507;51.284;5.758;2023-05-07T03:33:53;12.90;99.90
43858;DHT22;29507;51.284;5.758;2023-05-07T03:36:19;12.90;99.90
43858;DHT22;29507;51.284;5.758;2023-05-07T03:38:45;12.90;99.90
43858;DHT22;29507;51.284;5.758;2023-05-07T03:41:11;12.90;99.90
43858;DHT22;29507;51.284;5.758;2023-05-07T03:43:37;12.90;99.90
43858;DHT22;29507;51.284;5.758;2023-05-07T03:46:02;12.90;99.90
43858;DHT22;29507;51.284;5.758;2023-05-07T03:48:28;12.90;99.90
43858;DHT22;29507;51.284;5.758;2023-05-07T03:50:53;12.90;99.90
43858;DHT22;29507;51.284;5.758;2023-05-07T03:53:19;12.80;99.90
43858;DHT22;29507;51.284;5.758;2023-05-07T03:55:44;12.80;99.90
43858;DHT22;29507;51.284;5.758;2023-05-07T03:58:10;12.90;99.90
43858;DHT22;29507;51.284;5.758;2023-05-07T04:00:36;12.90;99.90
43858;DHT22;29507;51.284;5.758;2023-05-07T04:03:04;12.90;99.90
43858;DHT22;29507;51.284;5.758;2023-05-07T04:05:30;12.90;99.90
43858;DHT22;29507;51.284;5.758;2023-05-07T04:07:57;12.90;99.90
43858;DHT22;29507;51.284;5.758;2023-05-07T04:10:23;12.90;99.90
43858;DHT22;29507;51.284;5.758;2023-05-07T04:12:48;12.80;99.90
43858;DHT22;29507;51.284;5.758;2023-05-07T04:15:14;12.80;99.90
43858;DHT22;29507;51.284;5.758;2023-05-07T04:17:39;12.80;99.90
43858;DHT22;29507;51.284;5.758;2023-05-07T04:20:10;12.80;99.90
43858;DHT22;29507;51.284;5.758;2023-05-07T04:22:36;12.80;99.90
43858;DHT22;29507;51.284;5.758;2023-05-07T04:25:01;12.90;99.90
43858;DHT22;29507;51.284;5.758;2023-05-07T04:27:27;12.90;99.90
43858;DHT22;29507;51.284;5.758;2023-05-07T04:29:53;12.90;99.90
43858;DHT22;29507;51.284;5.758;2023-05-07T04:32:21;13.00;99.90
43858;DHT22;29507;51.284;5.758;2023-05-07T04:34:46;13.00;99.90
43858;DHT22;29507;51.284;5.758;2023-05-07T04:37:12;13.10;99.90
43858;DHT22;29507;51.284;5.758;2023-05-07T04:39:37;13.10;99.90
43858;DHT22;29507;51.284;5.758;2023-05-07T04:42:03;13.20;99.90
43858;DHT22;29507;51.284;5.758;2023-05-07T04:44:29;13.20;99.90
43858;DHT22;29507;51.284;5.758;2023-05-07T04:46:56;13.30;99.90
43858;DHT22;29507;51.284;5.758;2023-05-07T04:49:22;13.30;99.90
43858;DHT22;29507;51.284;5.758;2023-05-07T04:51:47;13.40;99.90
43858;DHT22;29507;51.284;5.758;2023-05-07T04:54:13;13.40;99.90
43858;DHT22;29507;51.284;5.758;2023-05-07T04:56:39;13.50;99.90
43858;DHT22;29507;51.284;5.758;2023-05-07T04:59:04;13.50;99.90
43858;DHT22;29507;51.284;5.758;2023-05-07T05:01:31;13.60;99.90
43858;DHT22;29507;51.284;5.758;2023-05-07T05:03:56;13.70;99.90
43858;DHT22;29507;51.284;5.758;2023-05-07T05:06:22;13.70;99.90
43858;DHT22;29507;51.284;5.758;2023-05-07T05:08:47;13.80;99.90
43858;DHT22;29507;51.284;5.758;2023-05-07T05:11:13;13.90;99.90
43858;DHT22;29507;51.284;5.758;2023-05-07T05:13:39;14.00;99.90
43858;DHT22;29507;51.284;5.758;2023-05-07T05:16:05;14.10;99.90
43858;DHT22;29507;51.284;5.758;2023-05-07T05:18:32;14.10;99.90
43858;DHT22;29507;51.284;5.758;2023-05-07T05:20:58;14.20;99.90
43858;DHT22;29507;51.284;5.758;2023-05-07T05:23:23;14.30;99.90
43858;DHT22;29507;51.284;5.758;2023-05-07T05:25:49;14.40;99.90
43858;DHT22;29507;51.284;5.758;2023-05-07T05:28:15;14.40;99.90
43858;DHT22;29507;51.284;5.758;2023-05-07T05:30:40;14.40;99.90
43858;DHT22;29507;51.284;5.758;2023-05-07T05:33:06;14.50;99.90
43858;DHT22;29507;51.284;5.758;2023-05-07T05:35:31;14.50;99.90
43858;DHT22;29507;51.284;5.758;2023-05-07T05:37:57;14.50;99.90
43858;DHT22;29507;51.284;5.758;2023-05-07T05:40:23;14.50;99.90
43858;DHT22;29507;51.284;5.758;2023-05-07T05:42:48;14.40;99.90
43858;DHT22;29507;51.284;5.758;2023-05-07T05:45:14;14.50;99.90
43858;DHT22;29507;51.284;5.758;2023-05-07T05:47:40;14.50;99.90
43858;DHT22;29507;51.284;5.758;2023-05-07T05:50:06;14.60;99.90
43858;DHT22;29507;51.284;5.758;2023-05-07T05:52:32;14.70;99.90
43858;DHT22;29507;51.284;5.758;2023-05-07T05:54:58;14.70;99.90
43858;DHT22;29507;51.284;5.758;2023-05-07T05:57:23;14.80;99.90
43858;DHT22;29507;51.284;5.758;2023-05-07T05:59:49;14.80;99.90
43858;DHT22;29507;51.284;5.758;2023-05-07T06:02:15;14.80;99.90
43858;DHT22;29507;51.284;5.758;2023-05-07T06:04:40;14.80;99.90
43858;DHT22;29507;51.284;5.758;2023-05-07T06:07:07;14.80;99.90
43858;DHT22;29507;51.284;5.758;2023-05-07T06:09:33;15.00;99.90
43858;DHT22;29507;51.284;5.758;2023-05-07T06:11:58;15.10;99.90
43858;DHT22;29507;51.284;5.758;2023-05-07T06:14:24;15.20;99.90
43858;DHT22;29507;51.284;5.758;2023-05-07T06:16:49;15.40;99.90
43858;DHT22;29507;51.284;5.758;2023-05-07T06:19:15;15.70;99.90
43858;DHT22;29507;51.284;5.758;2023-05-07T06:21:43;15.90;99.90
43858;DHT22;29507;51.284;5.758;2023-05-07T06:24:09;16.10;99.90
43858;DHT22;29507;51.284;5.758;2023-05-07T06:26:35;16.10;99.90
43858;DHT22;29507;51.284;5.758;2023-05-07T06:29:00;16.20;99.90
43858;DHT22;29507;51.284;5.758;2023-05-07T06:31:30;16.40;99.90
43858;DHT22;29507;51.284;5.758;2023-05-07T06:33:57;16.70;99.90
43858;DHT22;29507;51.284;5.758;2023-05-07T06:36:23;16.80;99.90
43858;DHT22;29507;51.284;5.758;2023-05-07T06:38:48;16.90;99.90
43858;DHT22;29507;51.284;5.758;2023-05-07T06:41:14;16.90;99.90
43858;DHT22;29507;51.284;5.758;2023-05-07T06:43:39;17.00;99.90
43858;DHT22;29507;51.284;5.758;2023-05-07T06:46:05;17.30;99.90
43858;DHT22;29507;51.284;5.758;2023-05-07T06:48:31;17.70;99.90
43858;DHT22;29507;51.284;5.758;2023-05-07T06:50:56;17.80;99.90
43858;DHT22;29507;51.284;5.758;2023-05-07T06:53:23;18.10;99.90
43858;DHT22;29507;51.284;5.758;2023-05-07T06:55:49;18.30;99.90
43858;DHT22;29507;51.284;5.758;2023-05-07T06:58:14;18.40;99.90
43858;DHT22;29507;51.284;5.758;2023-05-07T07:00:40;18.40;99.90
43858;DHT22;29507;51.284;5.758;2023-05-07T07:03:06;18.30;99.90
43858;DHT22;29507;51.284;5.758;2023-05-07T07:05:32;18.40;99.90
43858;DHT22;29507;51.284;5.758;2023-05-07T07:07:57;18.60;99.90
43858;DHT22;29507;51.284;5.758;2023-05-07T07:10:23;18.90;99.90
43858;DHT22;29507;51.284;5.758;2023-05-07T07:12:50;19.00;99.90
43858;DHT22;29507;51.284;5.758;2023-05-07T07:15:16;19.00;99.90
43858;DHT22;29507;51.284;5.758;2023-05-07T07:17:42;18.90;99.90
43858;DHT22;29507;51.284;5.758;2023-05-07T07:20:07;18.80;99.90
43858;DHT22;29507;51.284;5.758;2023-05-07T07:22:33;18.70;99.90
43858;DHT22;29507;51.284;5.758;2023-05-07T07:24:59;18.70;99.90
43858;DHT22;29507;51.284;5.758;2023-05-07T07:27:25;18.50;99.90
43858;DHT22;29507;51.284;5.758;2023-05-07T07:29:50;18.40;99.90
43858;DHT22;29507;51.284;5.758;2023-05-07T07:32:16;18.30;99.90
43858;DHT22;29507;51.284;5.758;2023-05-07T07:34:42;18.30;99.90
43858;DHT22;29507;51.284;5.758;2023-05-07T07:37:07;18.30;99.90
43858;DHT22;29507;51.284;5.758;2023-05-07T07:39:33;18.30;99.90
43858;DHT22;29507;51.284;5.758;2023-05-07T07:41:59;18.40;99.90
43858;DHT22;29507;51.284;5.758;2023-05-07T07:44:25;18.50;99.90
43858;DHT22;29507;51.284;5.758;2023-05-07T07:46:51;18.60;99.90
43858;DHT22;29507;51.284;5.758;2023-05-07T07:49:17;18.50;99.90
43858;DHT22;29507;51.284;5.758;2023-05-07T07:51:42;18.40;99.90
43858;DHT22;29507;51.284;5.758;2023-05-07T07:54:08;18.30;99.90
43858;DHT22;29507;51.284;5.758;2023-05-07T07:56:34;18.20;99.90
43858;DHT22;29507;51.284;5.758;2023-05-07T07:59:00;18.20;99.90
43858;DHT22;29507;51.284;5.758;2023-05-07T08:01:26;18.10;99.90
43858;DHT22;29507;51.284;5.758;2023-05-07T08:03:51;17.90;99.90
43858;DHT22;29507;51.284;5.758;2023-05-07T08:06:17;17.80;99.90
43858;DHT22;29507;51.284;5.758;2023-05-07T08:08:43;17.90;99.90
43858;DHT22;29507;51.284;5.758;2023-05-07T08:11:08;18.00;99.90
43858;DHT22;29507;51.284;5.758;2023-05-07T08:13:34;18.10;99.90
43858;DHT22;29507;51.284;5.758;2023-05-07T08:16:00;18.10;99.90
43858;DHT22;29507;51.284;5.758;2023-05-07T08:18:26;18.20;99.90
43858;DHT22;29507;51.284;5.758;2023-05-07T08:20:53;18.30;99.90
43858;DHT22;29507;51.284;5.758;2023-05-07T08:23:19;18.40;99.90
43858;DHT22;29507;51.284;5.758;2023-05-07T08:25:44;18.50;99.90
43858;DHT22;29507;51.284;5.758;2023-05-07T08:28:10;18.80;99.90
43858;DHT22;29507;51.284;5.758;2023-05-07T08:30:36;19.20;99.90
43858;DHT22;29507;51.284;5.758;2023-05-07T08:33:01;19.50;99.90
43858;DHT22;29507;51.284;5.758;2023-05-07T08:35:27;19.70;99.90
43858;DHT22;29507;51.284;5.758;2023-05-07T08:37:53;20.10;99.90
43858;DHT22;29507;51.284;5.758;2023-05-07T08:40:19;20.20;99.90
43858;DHT22;29507;51.284;5.758;2023-05-07T08:42:48;20.50;99.90
43858;DHT22;29507;51.284;5.758;2023-05-07T08:45:15;20.80;99.90
43858;DHT22;29507;51.284;5.758;2023-05-07T08:47:45;21.10;99.90
43858;DHT22;29507;51.284;5.758;2023-05-07T08:50:12;21.70;99.90
43858;DHT22;29507;51.284;5.758;2023-05-07T08:52:39;22.20;99.90
43858;DHT22;29507;51.284;5.758;2023-05-07T08:55:07;22.50;99.90
43858;DHT22;29507;51.284;5.758;2023-05-07T08:57:32;22.90;99.90
43858;DHT22;29507;51.284;5.758;2023-05-07T08:59:58;23.10;99.90
43858;DHT22;29507;51.284;5.758;2023-05-07T09:02:24;23.30;99.90
43858;DHT22;29507;51.284;5.758;2023-05-07T09:04:49;23.70;99.90
43858;DHT22;29507;51.284;5.758;2023-05-07T09:07:16;23.70;99.90
43858;DHT22;29507;51.284;5.758;2023-05-07T09:09:42;23.80;99.90
43858;DHT22;29507;51.284;5.758;2023-05-07T09:12:09;24.10;99.90
43858;DHT22;29507;51.284;5.758;2023-05-07T09:14:35;24.10;99.90
43858;DHT22;29507;51.284;5.758;2023-05-07T09:17:01;24.10;99.90
43858;DHT22;29507;51.284;5.758;2023-05-07T09:19:27;24.10;99.90
43858;DHT22;29507;51.284;5.758;2023-05-07T09:22:00;24.10;99.90
43858;DHT22;29507;51.284;5.758;2023-05-07T09:24:26;24.60;99.90
43858;DHT22;29507;51.284;5.758;2023-05-07T09:26:54;24.90;99.90
43858;DHT22;29507;51.284;5.758;2023-05-07T09:29:20;24.90;99.90
43858;DHT22;29507;51.284;5.758;2023-05-07T09:31:46;24.80;99.90
43858;DHT22;29507;51.284;5.758;2023-05-07T09:34:11;24.60;99.90
43858;DHT22;29507;51.284;5.758;2023-05-07T09:36:37;24.50;99.90
43858;DHT22;29507;51.284;5.758;2023-05-07T09:39:03;24.70;99.90
43858;DHT22;29507;51.284;5.758;2023-05-07T09:41:30;24.80;99.90
43858;DHT22;29507;51.284;5.758;2023-05-07T09:43:58;24.70;99.90
43858;DHT22;29507;51.284;5.758;2023-05-07T09:46:30;24.70;99.90
43858;DHT22;29507;51.284;5.758;2023-05-07T09:48:57;25.00;99.90
43858;DHT22;29507;51.284;5.758;2023-05-07T09:51:38;25.60;99.90
43858;DHT22;29507;51.284;5.758;2023-05-07T09:54:05;25.80;98.50
43858;DHT22;29507;51.284;5.758;2023-05-07T09:56:32;25.70;98.60
43858;DHT22;29507;51.284;5.758;2023-05-07T09:58:59;25.70;99.20
43858;DHT22;29507;51.284;5.758;2023-05-07T10:01:27;25.70;98.70
43858;DHT22;29507;51.284;5.758;2023-05-07T10:03:53;25.60;97.20
43858;DHT22;29507;51.284;5.758;2023-05-07T10:06:20;25.50;97.80
43858;DHT22;29507;51.284;5.758;2023-05-07T10:08:46;25.40;98.00
43858;DHT22;29507;51.284;5.758;2023-05-07T10:11:12;25.40;97.90
43858;DHT22;29507;51.284;5.758;2023-05-07T10:13:40;25.20;98.40
43858;DHT22;29507;51.284;5.758;2023-05-07T10:16:06;25.10;99.90
43858;DHT22;29507;51.284;5.758;2023-05-07T10:18:33;25.10;98.70
43858;DHT22;29507;51.284;5.758;2023-05-07T10:21:04;24.90;99.90
43858;DHT22;29507;51.284;5.758;2023-05-07T10:23:32;25.00;99.40
43858;DHT22;29507;51.284;5.758;2023-05-07T10:26:01;25.30;99.00
43858;DHT22;29507;51.284;5.758;2023-05-07T10:28:29;25.20;98.60
43858;DHT22;29507;51.284;5.758;2023-05-07T10:31:07;25.20;97.70
43858;DHT22;29507;51.284;5.758;2023-05-07T10:33:34;25.30;97.50
43858;DHT22;29507;51.284;5.758;2023-05-07T10:36:02;25.30;96.40
43858;DHT22;29507;51.284;5.758;2023-05-07T10:38:30;25.80;96.90
43858;DHT22;29507;51.284;5.758;2023-05-07T10:40:55;26.80;95.60
43858;DHT22;29507;51.284;5.758;2023-05-07T10:43:21;27.50;93.00
43858;DHT22;29507;51.284;5.758;2023-05-07T10:46:09;27.90;91.90
43858;DHT22;29507;51.284;5.758;2023-05-07T10:51:32;28.50;86.30
43858;DHT22;29507;51.284;5.758;2023-05-07T10:56:42;28.50;83.10
43858;DHT22;29507;51.284;5.758;2023-05-07T11:02:00;28.50;80.80
43858;DHT22;29507;51.284;5.758;2023-05-07T11:04:28;28.40;84.30
43858;DHT22;29507;51.284;5.758;2023-05-07T11:09:54;28.60;80.30
43858;DHT22;29507;51.284;5.758;2023-05-07T11:15:05;27.90;81.10
43858;DHT22;29507;51.284;5.758;2023-05-07T11:17:32;27.70;83.40
43858;DHT22;29507;51.284;5.758;2023-05-07T11:20:01;27.50;83.30
43858;DHT22;29507;51.284;5.758;2023-05-07T11:25:03;27.20;81.80
43858;DHT22;29507;51.284;5.758;2023-05-07T11:27:29;27.30;82.90
43858;DHT22;29507;51.284;5.758;2023-05-07T11:29:55;27.30;82.80
43858;DHT22;29507;51.284;5.758;2023-05-07T11:32:26;27.50;80.30
43858;DHT22;29507;51.284;5.758;2023-05-07T11:34:53;27.30;80.20
43858;DHT22;29507;51.284;5.758;2023-05-07T11:37:19;27.10;80.10
43858;DHT22;29507;51.284;5.758;2023-05-07T11:39:45;26.80;82.40
43858;DHT22;29507;51.284;5.758;2023-05-07T11:44:55;26.80;83.50
43858;DHT22;29507;51.284;5.758;2023-05-07T11:47:21;26.50;81.20
43858;DHT22;29507;51.284;5.758;2023-05-07T11:49:48;26.20;83.30
43858;DHT22;29507;51.284;5.758;2023-05-07T11:52:15;25.90;84.50
43858;DHT22;29507;51.284;5.758;2023-05-07T11:54:41;25.70;83.40
43858;DHT22;29507;51.284;5.758;2023-05-07T11:57:10;25.40;83.90
43858;DHT22;29507;51.284;5.758;2023-05-07T11:59:40;25.50;85.50
43858;DHT22;29507;51.284;5.758;2023-05-07T12:02:06;25.60;84.50
43858;DHT22;29507;51.284;5.758;2023-05-07T12:04:32;25.60;85.80
43858;DHT22;29507;51.284;5.758;2023-05-07T12:06:58;25.60;87.00
43858;DHT22;29507;51.284;5.758;2023-05-07T12:09:23;25.60;85.80
43858;DHT22;29507;51.284;5.758;2023-05-07T12:11:49;25.50;84.60
43858;DHT22;29507;51.284;5.758;2023-05-07T12:14:16;25.20;84.80
43858;DHT22;29507;51.284;5.758;2023-05-07T12:16:45;24.90;85.90
43858;DHT22;29507;51.284;5.758;2023-05-07T12:19:11;24.60;85.10
43858;DHT22;29507;51.284;5.758;2023-05-07T12:21:40;24.10;87.30
43858;DHT22;29507;51.284;5.758;2023-05-07T12:24:07;23.80;88.30
43858;DHT22;29507;51.284;5.758;2023-05-07T12:26:37;23.50;89.70
43858;DHT22;29507;51.284;5.758;2023-05-07T12:29:03;23.10;90.50
43858;DHT22;29507;51.284;5.758;2023-05-07T12:31:29;22.80;90.50
43858;DHT22;29507;51.284;5.758;2023-05-07T12:33:55;22.50;91.30
43858;DHT22;29507;51.284;5.758;2023-05-07T12:36:21;22.30;91.60
43858;DHT22;29507;51.284;5.758;2023-05-07T12:38:49;22.00;92.50
43858;DHT22;29507;51.284;5.758;2023-05-07T12:41:15;21.80;94.70
43858;DHT22;29507;51.284;5.758;2023-05-07T12:43:44;21.40;98.50
43858;DHT22;29507;51.284;5.758;2023-05-07T12:46:10;20.90;99.90
43858;DHT22;29507;51.284;5.758;2023-05-07T12:48:43;20.50;99.90
43858;DHT22;29507;51.284;5.758;2023-05-07T12:51:09;20.10;99.90
43858;DHT22;29507;51.284;5.758;2023-05-07T12:53:40;19.80;99.90
43858;DHT22;29507;51.284;5.758;2023-05-07T12:56:08;19.50;99.90
43858;DHT22;29507;51.284;5.758;2023-05-07T12:58:34;19.40;99.90
43858;DHT22;29507;51.284;5.758;2023-05-07T13:01:05;19.20;99.90
43858;DHT22;29507;51.284;5.758;2023-05-07T13:03:35;19.00;99.90
43858;DHT22;29507;51.284;5.758;2023-05-07T13:06:08;18.80;99.90
43858;DHT22;29507;51.284;5.758;2023-05-07T13:08:42;18.70;99.90
43858;DHT22;29507;51.284;5.758;2023-05-07T13:11:11;18.50;99.90
43858;DHT22;29507;51.284;5.758;2023-05-07T13:13:37;18.40;99.90
43858;DHT22;29507;51.284;5.758;2023-05-07T13:16:05;18.20;99.90
43858;DHT22;29507;51.284;5.758;2023-05-07T13:18:32;18.00;99.90
43858;DHT22;29507;51.284;5.758;2023-05-07T13:20:58;17.90;99.90
43858;DHT22;29507;51.284;5.758;2023-05-07T13:23:24;17.70;99.90
43858;DHT22;29507;51.284;5.758;2023-05-07T13:25:53;17.50;99.90
43858;DHT22;29507;51.284;5.758;2023-05-07T13:28:22;17.30;99.90
43858;DHT22;29507;51.284;5.758;2023-05-07T13:30:48;17.20;99.90
43858;DHT22;29507;51.284;5.758;2023-05-07T13:33:14;17.20;99.90
43858;DHT22;29507;51.284;5.758;2023-05-07T13:35:41;17.10;99.90
43858;DHT22;29507;51.284;5.758;2023-05-07T13:38:07;17.10;99.90
43858;DHT22;29507;51.284;5.758;2023-05-07T13:40:33;17.10;99.90
43858;DHT22;29507;51.284;5.758;2023-05-07T13:42:59;17.10;99.90
43858;DHT22;29507;51.284;5.758;2023-05-07T13:45:27;17.00;99.90
43858;DHT22;29507;51.284;5.758;2023-05-07T13:47:54;17.00;99.90
43858;DHT22;29507;51.284;5.758;2023-05-07T13:50:20;16.90;99.90
43858;DHT22;29507;51.284;5.758;2023-05-07T13:52:46;16.90;99.90
43858;DHT22;29507;51.284;5.758;2023-05-07T13:55:19;16.90;99.90
43858;DHT22;29507;51.284;5.758;2023-05-07T13:57:46;16.90;99.90
43858;DHT22;29507;51.284;5.758;2023-05-07T14:00:12;17.00;99.90
43858;DHT22;29507;51.284;5.758;2023-05-07T14:02:38;17.30;99.90
43858;DHT22;29507;51.284;5.758;2023-05-07T14:05:04;17.50;99.90
43858;DHT22;29507;51.284;5.758;2023-05-07T14:07:30;17.80;99.90
43858;DHT22;29507;51.284;5.758;2023-05-07T14:09:56;18.20;99.90
43858;DHT22;29507;51.284;5.758;2023-05-07T14:12:22;18.60;99.90
43858;DHT22;29507;51.284;5.758;2023-05-07T14:14:47;19.00;99.90
43858;DHT22;29507;51.284;5.758;2023-05-07T14:17:16;19.60;99.90
43858;DHT22;29507;51.284;5.758;2023-05-07T14:19:42;20.10;99.90
43858;DHT22;29507;51.284;5.758;2023-05-07T14:22:08;20.60;99.90
43858;DHT22;29507;51.284;5.758;2023-05-07T14:24:33;20.90;99.90
43858;DHT22;29507;51.284;5.758;2023-05-07T14:26:59;20.90;99.90
43858;DHT22;29507;51.284;5.758;2023-05-07T14:29:25;20.90;99.90
43858;DHT22;29507;51.284;5.758;2023-05-07T14:31:51;21.20;99.90
43858;DHT22;29507;51.284;5.758;2023-05-07T14:34:16;21.30;99.90
43858;DHT22;29507;51.284;5.758;2023-05-07T14:36:42;21.50;99.90
43858;DHT22;29507;51.284;5.758;2023-05-07T14:39:09;21.60;99.90
43858;DHT22;29507;51.284;5.758;2023-05-07T14:41:35;21.70;99.90
43858;DHT22;29507;51.284;5.758;2023-05-07T14:44:00;21.90;99.90
43858;DHT22;29507;51.284;5.758;2023-05-07T14:46:27;22.10;99.90
43858;DHT22;29507;51.284;5.758;2023-05-07T14:48:52;22.50;99.90
43858;DHT22;29507;51.284;5.758;2023-05-07T14:51:18;22.60;99.90
43858;DHT22;29507;51.284;5.758;2023-05-07T14:53:44;22.70;99.90
43858;DHT22;29507;51.284;5.758;2023-05-07T14:56:10;22.80;99.90
43858;DHT22;29507;51.284;5.758;2023-05-07T14:58:35;22.90;99.90
43858;DHT22;29507;51.284;5.758;2023-05-07T15:01:01;23.00;99.90
43858;DHT22;29507;51.284;5.758;2023-05-07T15:03:27;22.70;99.90
43858;DHT22;29507;51.284;5.758;2023-05-07T15:05:53;22.70;99.90
43858;DHT22;29507;51.284;5.758;2023-05-07T15:08:19;22.70;99.90
43858;DHT22;29507;51.284;5.758;2023-05-07T15:10:45;22.70;99.90
43858;DHT22;29507;51.284;5.758;2023-05-07T15:13:11;22.80;99.90
43858;DHT22;29507;51.284;5.758;2023-05-07T15:15:38;22.90;99.90
43858;DHT22;29507;51.284;5.758;2023-05-07T15:18:04;22.70;99.90
43858;DHT22;29507;51.284;5.758;2023-05-07T15:20:30;22.60;99.90
43858;DHT22;29507;51.284;5.758;2023-05-07T15:22:56;22.40;99.90
43858;DHT22;29507;51.284;5.758;2023-05-07T15:25:22;22.20;99.90
43858;DHT22;29507;51.284;5.758;2023-05-07T15:27:48;22.30;99.90
43858;DHT22;29507;51.284;5.758;2023-05-07T15:30:14;22.20;99.90
43858;DHT22;29507;51.284;5.758;2023-05-07T15:32:40;22.00;99.90
43858;DHT22;29507;51.284;5.758;2023-05-07T15:35:07;21.90;99.90
43858;DHT22;29507;51.284;5.758;2023-05-07T15:37:33;21.80;99.90
43858;DHT22;29507;51.284;5.758;2023-05-07T15:39:58;21.50;99.90
43858;DHT22;29507;51.284;5.758;2023-05-07T15:42:24;21.40;99.90
43858;DHT22;29507;51.284;5.758;2023-05-07T15:44:50;21.20;99.90